Time;durP1;ratioP1;P1;durP2;ratioP2;P2;SDS_P1;SDS_P2;PMS_P1;PMS_P2;Temp;Humidity;BMP_temperature;BMP_pressure;BME280_temperature;BME280_humidity;BME280_pressure;Samples;Min_cycle;Max_cycle;Signal;HPM_P1;HPM_P2
2021/12/06 00:01:55;;;;;;;0.20;0.20;;;;;;;18.95;42.18;100651.44;5111594;28;20040;-36
2021/12/06 00:04:24;;;;;;;0.20;0.20;;;;;;;18.95;42.36;100658.91;5100267;28;20466;-39
2021/12/06 00:06:54;;;;;;;0.20;0.20;;;;;;;18.94;42.18;100649.81;5115572;28;20043;-35
2021/12/06 00:09:23;;;;;;;0.20;0.20;;;;;;;18.95;42.15;100661.66;5115855;28;20052;-35
2021/12/06 00:11:51;;;;;;;;;;;;;;;18.95;42.13;100669.94;5104065;28;20142;-36
2021/12/06 00:14:16;;;;;;;;;;;;;;;18.94;42.22;100666.38;5101323;28;20021;-35
2021/12/06 00:16:42;;;;;;;0.20;0.20;;;;;;;18.93;42.17;100670.25;5118888;28;20330;-36
2021/12/06 00:19:08;;;;;;;0.20;0.20;;;;;;;18.94;42.32;100671.06;5113379;27;20039;-36
2021/12/06 00:21:34;;;;;;;0.20;0.20;;;;;;;18.94;42.27;100676.59;5112593;28;20067;-38
2021/12/06 00:23:59;;;;;;;0.20;0.20;;;;;;;18.94;42.39;100676.59;5084183;28;20052;-35
2021/12/06 00:26:25;;;;;;;0.20;0.20;;;;;;;18.95;42.16;100672.72;5117392;28;20091;-35
2021/12/06 00:28:57;;;;;;;0.20;0.20;;;;;;;18.94;42.06;100671.88;5117538;28;20047;-35
2021/12/06 00:31:23;;;;;;;0.20;0.20;;;;;;;18.95;42.40;100675.47;5118571;28;20048;-34
2021/12/06 00:33:56;;;;;;;0.20;0.20;;;;;;;18.94;42.26;100665.53;5101242;28;20050;-35
2021/12/06 00:36:27;;;;;;;0.20;0.20;;;;;;;18.93;42.11;100664.72;5112655;28;20039;-35
2021/12/06 00:38:53;;;;;;;0.20;0.20;;;;;;;18.94;42.19;100666.38;5116442;28;20096;-35
2021/12/06 00:41:19;;;;;;;0.20;0.20;;;;;;;18.95;42.18;100668.00;5115749;28;20048;-35
2021/12/06 00:43:45;;;;;;;0.20;0.20;;;;;;;18.95;42.09;100672.72;5118195;28;20131;-37
2021/12/06 00:46:11;;;;;;;0.20;0.20;;;;;;;18.96;42.23;100674.38;5115029;28;20039;-35
2021/12/06 00:48:36;;;;;;;0.20;0.20;;;;;;;18.94;42.16;100674.66;5117340;28;20433;-35
2021/12/06 00:51:04;;;;;;;0.20;0.20;;;;;;;18.94;42.22;100684.88;5111439;28;20039;-35
2021/12/06 00:53:30;;;;;;;0.20;0.20;;;;;;;18.95;42.34;100686.50;5100690;28;20382;-35
2021/12/06 00:55:57;;;;;;;0.20;0.20;;;;;;;18.94;42.34;100693.13;5113866;28;20454;-35
2021/12/06 00:58:23;;;;;;;0.20;0.20;;;;;;;18.94;42.10;100696.72;5087528;28;20046;-35
2021/12/06 01:00:51;;;;;;;0.20;0.20;;;;;;;18.95;42.30;100705.81;5102052;28;20045;-35
2021/12/06 01:03:22;;;;;;;0.22;0.22;;;;;;;18.95;42.32;100708.59;5110870;28;20050;-35
2021/12/06 01:05:49;;;;;;;0.20;0.20;;;;;;;18.94;42.36;100713.28;5097683;28;20100;-35
2021/12/06 01:08:15;;;;;;;0.20;0.20;;;;;;;18.94;42.22;100721.56;5104890;28;20039;-35
2021/12/06 01:10:41;;;;;;;0.20;0.20;;;;;;;18.95;42.16;100719.63;5114603;28;20056;-34
2021/12/06 01:13:07;;;;;;;0.20;0.20;;;;;;;18.94;42.21;100721.56;5115110;28;20039;-35
2021/12/06 01:15:35;;;;;;;0.20;0.20;;;;;;;18.94;42.37;100724.31;5110716;28;20039;-35
2021/12/06 01:18:02;;;;;;;0.20;0.20;;;;;;;18.94;42.14;100726.25;5110735;28;20134;-34
2021/12/06 01:20:30;;;;;;;0.20;0.20;;;;;;;18.94;42.21;100732.59;5083023;28;20524;-35
2021/12/06 01:23:03;;;;;;;0.20;0.20;;;;;;;18.94;42.09;100735.34;5103875;28;20189;-35
2021/12/06 01:25:39;;;;;;;0.20;0.20;;;;;;;18.94;42.46;100731.78;5105082;28;20049;-35
2021/12/06 01:31:02;;;;;;;0.20;0.20;;;;;;;18.95;42.25;100737.00;5105177;28;20076;-35
2021/12/06 01:39:21;;;;;;;0.20;0.20;;;;;;;18.93;42.43;100743.94;5106392;28;20047;-34
2021/12/06 01:41:35;;;;;;;0.20;0.20;;;;;;;18.94;42.44;100754.66;5103323;28;20047;-35
2021/12/06 01:44:12;;;;;;;0.20;0.20;;;;;;;18.94;42.37;100762.13;5116417;28;20032;-35
2021/12/06 01:46:43;;;;;;;0.20;0.20;;;;;;;18.95;42.49;100763.78;5107667;28;20111;-35
2021/12/06 01:49:09;;;;;;;0.20;0.20;;;;;;;18.94;42.21;100762.94;5107437;28;20401;-36
2021/12/06 01:51:36;;;;;;;0.20;0.20;;;;;;;18.94;42.19;100757.44;5098770;28;20052;-38
2021/12/06 01:54:03;;;;;;;0.30;0.30;;;;;;;18.94;42.32;100762.94;5102157;28;20059;-35
2021/12/06 01:56:29;;;;;;;0.20;0.20;;;;;;;18.93;42.46;100764.06;5120817;28;20065;-35
2021/12/06 01:58:54;;;;;;;0.25;0.25;;;;;;;18.95;42.38;100772.06;5118577;28;20047;-34
2021/12/06 02:01:21;;;;;;;0.20;0.20;;;;;;;18.93;42.36;100768.75;5111478;28;20047;-35
2021/12/06 02:03:46;;;;;;;0.20;0.20;;;;;;;18.95;42.14;100777.56;5115887;28;20194;-35
2021/12/06 02:06:12;;;;;;;0.20;0.20;;;;;;;18.96;42.26;100779.25;5106885;28;20047;-35
2021/12/06 02:08:38;;;;;;;0.20;0.20;;;;;;;18.94;42.10;100781.44;5113559;28;20131;-35
2021/12/06 02:11:05;;;;;;;0.20;0.20;;;;;;;18.94;42.05;100786.97;5121474;28;20039;-35
2021/12/06 02:13:39;;;;;;;0.20;0.20;;;;;;;18.93;42.50;100783.38;5115831;28;20039;-34
2021/12/06 02:16:06;;;;;;;0.20;0.20;;;;;;;18.93;42.13;100779.81;5106702;28;20277;-35
2021/12/06 02:18:44;;;;;;;0.30;0.30;;;;;;;18.94;42.31;100778.69;5117642;28;20393;-35
2021/12/06 02:21:30;;;;;;;0.20;0.20;;;;;;;18.94;42.39;100786.97;5117226;28;20047;-35
2021/12/06 02:23:57;;;;;;;0.20;0.20;;;;;;;18.94;42.41;100775.94;5102713;28;20100;-35
2021/12/06 02:26:23;;;;;;;0.20;0.20;;;;;;;18.94;42.33;100789.72;5103379;28;20349;-35
2021/12/06 02:28:49;;;;;;;0.20;0.20;;;;;;;18.94;42.29;100793.31;5123845;28;20077;-36
2021/12/06 02:31:17;;;;;;;0.20;0.20;;;;;;;18.94;42.51;100798.81;5105723;28;20043;-35
2021/12/06 02:33:45;;;;;;;0.20;0.20;;;;;;;18.94;42.26;100807.09;5118988;28;20081;-36
2021/12/06 02:36:11;;;;;;;0.20;0.20;;;;;;;18.95;42.47;100810.69;5114369;27;20040;-35
2021/12/06 02:38:37;;;;;;;0.20;0.20;;;;;;;18.95;42.34;100810.69;5118318;28;20046;-35
2021/12/06 02:41:03;;;;;;;0.20;0.20;;;;;;;18.94;42.27;100812.63;5100766;28;20051;-35
2021/12/06 02:43:30;;;;;;;0.20;0.20;;;;;;;18.94;42.16;100820.09;5106536;28;20054;-34
2021/12/06 02:45:56;;;;;;;0.20;0.20;;;;;;;18.94;42.31;100820.09;5115906;28;20050;-35
2021/12/06 02:48:22;;;;;;;0.20;0.20;;;;;;;18.95;42.13;100821.72;5115952;28;20052;-35
2021/12/06 02:50:51;;;;;;;0.20;0.20;;;;;;;18.94;42.43;100826.41;5115944;28;20123;-37
2021/12/06 02:53:19;;;;;;;0.20;0.20;;;;;;;18.94;42.19;100826.41;5100545;28;20047;-35
2021/12/06 02:55:51;;;;;;;0.20;0.20;;;;;;;18.95;42.30;100832.75;5084035;28;20039;-35
2021/12/06 02:58:42;;;;;;;0.20;0.20;;;;;;;18.95;42.31;100835.53;5088753;28;20401;-35
2021/12/06 03:01:16;;;;;;;0.22;0.22;;;;;;;18.94;42.37;100842.97;5104310;28;20043;-35
2021/12/06 03:03:41;;;;;;;0.32;0.32;;;;;;;18.94;42.46;100840.22;5114827;28;20047;-38
2021/12/06 03:06:09;;;;;;;0.20;0.20;;;;;;;18.94;42.42;100837.47;5116883;28;20052;-34
2021/12/06 03:08:47;;;;;;;0.20;0.20;;;;;;;18.94;42.34;100844.91;5115413;28;20490;-35
2021/12/06 03:11:17;;;;;;;0.20;0.20;;;;;;;18.94;42.46;100836.63;5101504;28;20097;-35
2021/12/06 03:13:43;;;;;;;0.20;0.20;;;;;;;18.95;42.36;100841.88;5114721;28;20498;-35
2021/12/06 03:16:09;;;;;;;0.20;0.20;;;;;;;18.94;42.44;100840.22;5120523;28;20307;-35
2021/12/06 03:18:35;;;;;;;0.20;0.20;;;;;;;18.94;42.36;100842.97;5119017;28;20070;-35
2021/12/06 03:21:02;;;;;;;0.20;0.20;;;;;;;18.94;42.23;100842.97;5115487;28;20086;-37
2021/12/06 03:23:28;;;;;;;0.20;0.20;;;;;;;18.93;42.13;100848.78;5098027;28;20048;-35
2021/12/06 03:25:54;;;;;;;0.20;0.20;;;;;;;18.92;42.29;100858.19;5118183;28;20042;-35
2021/12/06 03:28:20;;;;;;;0.20;0.20;;;;;;;18.94;42.56;100842.97;5104374;28;20044;-36
2021/12/06 03:30:46;;;;;;;0.20;0.20;;;;;;;18.95;42.49;100849.31;5105340;28;20127;-37
2021/12/06 03:33:11;;;;;;;0.20;0.20;;;;;;;18.93;42.38;100849.63;5104015;28;20078;-36
2021/12/06 03:35:37;;;;;;;0.20;0.20;;;;;;;18.94;42.24;100855.97;5116183;28;20448;-35
2021/12/06 03:38:03;;;;;;;0.20;0.20;;;;;;;18.94;42.33;100851.25;5103574;28;20044;-35
2021/12/06 03:40:29;;;;;;;0.20;0.20;;;;;;;18.95;42.32;100860.38;5112469;28;20044;-35
2021/12/06 03:42:55;;;;;;;0.20;0.20;;;;;;;18.95;42.45;100857.59;5117210;28;20515;-35
2021/12/06 03:45:21;;;;;;;0.20;0.20;;;;;;;18.94;42.45;100856.78;5103334;28;20047;-36
2021/12/06 03:47:46;;;;;;;0.20;0.20;;;;;;;18.94;42.50;100855.97;5112432;28;20470;-37
2021/12/06 03:50:12;;;;;;;0.20;0.20;;;;;;;18.93;42.38;100855.13;5113159;28;20443;-36
2021/12/06 03:52:39;;;;;;;0.30;0.30;;;;;;;18.93;42.24;100860.66;5118864;28;20466;-35
2021/12/06 03:55:06;;;;;;;0.20;0.20;;;;;;;18.93;42.40;100857.91;5115122;28;20054;-34
2021/12/06 03:57:32;;;;;;;0.20;0.20;;;;;;;18.95;42.23;100857.59;5114251;28;20085;-34
2021/12/06 03:59:58;;;;;;;0.20;0.20;;;;;;;18.94;42.32;100858.72;5114751;28;20039;-36
2021/12/06 04:02:26;;;;;;;0.30;0.30;;;;;;;18.95;42.40;100871.41;5117241;28;20078;-35
2021/12/06 04:04:53;;;;;;;0.20;0.20;;;;;;;18.94;42.43;100873.34;5115081;28;20047;-35
2021/12/06 04:07:19;;;;;;;0.20;0.20;;;;;;;18.94;42.53;100869.75;5110766;28;20069;-37
2021/12/06 04:09:45;;;;;;;0.20;0.20;;;;;;;18.94;42.39;100867.00;5098125;28;20048;-36
2021/12/06 04:12:12;;;;;;;0.20;0.20;;;;;;;18.93;42.27;100868.94;5113751;28;20052;-35
2021/12/06 04:14:38;;;;;;;0.20;0.20;;;;;;;18.94;42.33;100869.75;5110607;28;20409;-35
2021/12/06 04:17:04;;;;;;;0.20;0.20;;;;;;;18.93;42.27;100865.34;5118067;28;20539;-35
2021/12/06 04:19:30;;;;;;;0.20;0.20;;;;;;;18.93;42.20;100871.69;5112289;28;20051;-35
2021/12/06 04:21:56;;;;;;;0.20;0.20;;;;;;;18.93;42.15;100868.94;5114939;28;20182;-34
2021/12/06 04:24:22;;;;;;;0.20;0.20;;;;;;;18.93;42.41;100879.16;5109746;28;20390;-37
2021/12/06 04:26:48;;;;;;;0.20;0.20;;;;;;;18.94;42.26;100878.84;5119684;28;20078;-36
2021/12/06 04:29:14;;;;;;;0.20;0.20;;;;;;;18.93;42.26;100876.38;5100161;28;21226;-34
2021/12/06 04:31:45;;;;;;;0.20;0.20;;;;;;;18.95;42.38;100885.19;5112625;28;20063;-36
2021/12/06 04:34:11;;;;;;;0.20;0.20;;;;;;;18.94;42.48;100889.91;5110882;28;20062;-35
2021/12/06 04:36:38;;;;;;;0.20;0.20;;;;;;;18.94;42.44;100892.66;5115060;28;20127;-35
2021/12/06 04:39:08;;;;;;;0.20;0.20;;;;;;;18.94;42.18;100900.09;5099107;28;20130;-35
2021/12/06 04:41:33;;;;;;;0.20;0.20;;;;;;;18.93;42.24;100903.97;5097240;28;20040;-34
2021/12/06 04:44:00;;;;;;;0.20;0.20;;;;;;;18.94;42.52;100908.38;5110043;28;20386;-35
2021/12/06 04:46:25;;;;;;;0.20;0.20;;;;;;;18.95;42.54;100907.28;5115110;28;20092;-35
2021/12/06 04:48:51;;;;;;;0.20;0.20;;;;;;;18.94;42.43;100911.97;5111028;28;20039;-36
2021/12/06 04:51:18;;;;;;;0.20;0.20;;;;;;;18.93;42.21;100912.25;5115690;28;20042;-36
2021/12/06 04:53:44;;;;;;;0.20;0.20;;;;;;;18.93;42.32;100912.25;5100349;28;20047;-35
2021/12/06 04:56:19;;;;;;;0.20;0.20;;;;;;;18.93;42.42;100907.56;5086418;28;20103;-36
2021/12/06 05:01:35;;;;;;;0.20;0.20;;;;;;;18.94;42.19;100916.66;5164090;27;20210;-38
2021/12/06 05:04:06;;;;;;;0.20;0.20;;;;;;;18.94;42.24;100927.72;5124858;27;20062;-36
2021/12/06 05:06:35;;;;;;;0.20;0.20;;;;;;;18.93;42.38;100926.88;5127357;27;20039;-35
2021/12/06 05:09:09;;;;;;;0.20;0.20;;;;;;;18.93;42.46;100935.16;5144070;27;20482;-36
2021/12/06 05:11:35;;;;;;;0.20;0.20;;;;;;;18.94;42.35;100939.56;5127697;27;20053;-35
2021/12/06 05:14:02;;;;;;;0.20;0.20;;;;;;;18.94;42.45;100938.75;5145734;27;20043;-35
2021/12/06 05:16:29;;;;;;;0.22;0.22;;;;;;;18.92;42.24;100941.78;5144771;27;20130;-36
2021/12/06 05:18:54;;;;;;;0.20;0.20;;;;;;;18.94;42.49;100935.97;5141714;27;20039;-35
2021/12/06 05:21:20;;;;;;;0.20;0.20;;;;;;;18.94;42.43;100936.81;5143706;27;20051;-36
2021/12/06 05:23:46;;;;;;;0.20;0.20;;;;;;;18.93;42.41;100939.84;5143012;27;20070;-35
2021/12/06 05:26:12;;;;;;;0.20;0.20;;;;;;;18.94;42.26;100952.53;5126797;27;20045;-36
2021/12/06 05:28:43;;;;;;;0.20;0.20;;;;;;;19.00;42.93;100944.00;5126466;27;20122;-44
2021/12/06 05:31:15;;;;;;;0.20;0.20;;;;;;;19.14;43.31;100958.03;5144045;27;20077;-35
2021/12/06 05:33:44;;;;;;;0.20;0.20;;;;;;;19.12;43.11;100954.72;5127262;27;20427;-35
2021/12/06 05:36:09;;;;;;;;;;;;;;;19.08;43.28;100956.38;5126839;27;20039;-38
2021/12/06 05:38:35;;;;;;;0.20;0.20;;;;;;;19.08;42.79;100958.31;5142988;27;19920;-35
2021/12/06 05:41:01;;;;;;;0.20;0.20;;;;;;;19.07;42.83;100956.66;5143336;27;20043;-35
2021/12/06 05:43:27;;;;;;;0.20;0.20;;;;;;;19.07;42.85;100956.66;5126408;27;20231;-34
2021/12/06 05:45:53;;;;;;;0.20;0.20;;;;;;;19.07;42.86;100954.72;5125242;27;20073;-35
2021/12/06 05:48:19;;;;;;;0.20;0.20;;;;;;;19.08;42.91;100950.03;5143549;27;20054;-36
2021/12/06 05:50:50;;;;;;;0.35;0.32;;;;;;;19.08;42.76;100955.53;5106267;27;20059;-35
2021/12/06 05:53:16;;;;;;;0.20;0.20;;;;;;;19.07;42.76;100957.47;5124452;27;20041;-34
2021/12/06 05:55:43;;;;;;;0.20;0.20;;;;;;;19.07;42.70;100963.00;5123783;27;20045;-35
2021/12/06 05:58:10;;;;;;;0.20;0.20;;;;;;;19.08;42.55;100958.31;5125730;27;20102;-35
2021/12/06 06:00:36;;;;;;;0.20;0.20;;;;;;;19.07;42.65;100965.75;5142775;27;20404;-35
2021/12/06 06:03:05;;;;;;;0.20;0.20;;;;;;;19.08;42.78;100974.88;5125814;27;20287;-35
2021/12/06 06:05:32;;;;;;;0.20;0.20;;;;;;;19.09;42.64;100984.81;5144045;27;20084;-38
2021/12/06 06:07:58;;;;;;;0.20;0.20;;;;;;;19.08;42.88;100983.97;5141759;27;20141;-35
2021/12/06 06:10:24;;;;;;;0.20;0.20;;;;;;;19.08;42.65;100994.19;5137809;27;20195;-34
2021/12/06 06:12:49;;;;;;;0.20;0.20;;;;;;;19.09;42.63;100993.09;5110594;28;20089;-34
2021/12/06 06:15:15;;;;;;;0.20;0.20;;;;;;;19.10;43.33;100997.53;5127880;27;20042;-34
2021/12/06 06:17:43;;;;;;;0.28;0.28;;;;;;;19.11;42.50;100996.41;5130005;27;20062;-35
2021/12/06 06:20:27;;;;;;;0.20;0.20;;;;;;;19.10;42.53;101001.09;5109481;28;20438;-34
2021/12/06 06:22:53;;;;;;;0.20;0.20;;;;;;;19.11;42.74;100999.16;5127622;27;20175;-34
2021/12/06 06:25:19;;;;;;;0.20;0.20;;;;;;;19.10;42.48;100987.28;5121126;27;20043;-36
2021/12/06 06:27:45;;;;;;;0.20;0.20;;;;;;;19.13;42.57;101007.97;5112990;27;20053;-36
2021/12/06 06:30:12;;;;;;;0.20;0.20;;;;;;;19.12;42.72;101012.69;5109021;28;20047;-34
2021/12/06 06:32:37;;;;;;;0.20;0.20;;;;;;;19.13;42.48;101014.34;5091492;28;20047;-34
2021/12/06 06:35:04;;;;;;;0.20;0.20;;;;;;;19.14;42.62;101023.47;5124505;27;20516;-35
2021/12/06 06:37:30;;;;;;;0.20;0.20;;;;;;;19.15;42.68;101019.59;5106955;28;20035;-38
2021/12/06 06:39:55;;;;;;;0.20;0.20;;;;;;;19.19;42.46;101020.69;5125878;27;20050;-44
2021/12/06 06:42:23;;;;;;;0.20;0.20;;;;;;;19.42;43.19;101024.78;5124115;27;20051;-44
2021/12/06 06:44:50;;;;;;;0.20;0.20;;;;;;;19.47;42.62;101011.78;5108529;28;20474;-45
2021/12/06 06:47:16;;;;;;;0.20;0.20;;;;;;;19.62;42.94;101010.94;5105543;28;20053;-41
2021/12/06 06:49:42;;;;;;;0.20;0.20;;;;;;;19.63;41.36;101015.34;5125232;27;20054;-44
2021/12/06 06:52:07;;;;;;;0.20;0.20;;;;;;;19.55;41.36;101011.19;5118346;27;20051;-45
2021/12/06 06:54:33;;;;;;;0.20;0.20;;;;;;;19.53;39.67;101012.59;5121793;27;20095;-46
2021/12/06 06:56:59;;;;;;;0.20;0.20;;;;;;;19.62;40.26;100999.06;5122090;27;20039;-36
2021/12/06 06:59:24;;;;;;;0.20;0.20;;;;;;;19.62;40.43;100999.88;5114987;27;20046;-38
2021/12/06 07:01:50;;;;;;;0.20;0.20;;;;;;;19.60;40.91;100992.94;5109485;27;20100;-42
2021/12/06 07:04:16;;;;;;;0.20;0.20;;;;;;;19.58;41.39;101001.53;5112161;27;20474;-39
2021/12/06 07:06:44;;;;;;;0.20;0.20;;;;;;;19.56;41.53;100998.22;5125959;27;20047;-38
2021/12/06 07:09:10;;;;;;;0.20;0.20;;;;;;;19.55;41.49;101000.16;5107303;27;20107;-39
2021/12/06 07:11:36;;;;;;;0.20;0.20;;;;;;;19.55;41.62;101000.16;5122795;27;20050;-38
2021/12/06 07:14:02;;;;;;;0.20;0.20;;;;;;;19.55;41.55;101005.66;5102118;28;20043;-39
2021/12/06 07:16:29;;;;;;;0.20;0.20;;;;;;;19.55;41.89;101002.09;5106307;27;20058;-38
2021/12/06 07:18:56;;;;;;;0.20;0.20;;;;;;;19.57;41.53;101007.34;5123598;27;20359;-38
2021/12/06 07:21:22;;;;;;;0.20;0.20;;;;;;;19.56;41.49;101001.00;5099205;27;20498;-39
2021/12/06 07:23:48;;;;;;;0.20;0.20;;;;;;;19.57;41.89;101007.34;5086840;27;20099;-39
2021/12/06 07:26:16;;;;;;;0.20;0.20;;;;;;;19.58;41.72;101009.00;5102171;28;20550;-40
2021/12/06 07:28:43;;;;;;;0.20;0.20;;;;;;;19.56;41.78;101006.53;5114860;27;20053;-39
2021/12/06 07:31:12;;;;;;;0.20;0.20;;;;;;;19.58;41.51;101012.56;5100306;27;20767;-40
2021/12/06 07:33:39;;;;;;;0.20;0.20;;;;;;;19.59;41.54;101011.47;5124425;27;20137;-38
2021/12/06 07:36:05;;;;;;;0.22;0.20;;;;;;;19.60;41.47;101015.88;5113310;27;20084;-40
2021/12/06 07:38:34;;;;;;;0.20;0.20;;;;;;;19.61;41.61;101014.00;5123827;27;20050;-42
2021/12/06 07:41:01;;;;;;;0.20;0.20;;;;;;;19.61;41.71;101019.53;5117010;27;20050;-40
2021/12/06 07:43:26;;;;;;;0.20;0.20;;;;;;;19.60;41.88;101024.16;5104085;27;20058;-44
2021/12/06 07:45:52;;;;;;;0.20;0.20;;;;;;;19.61;41.62;101017.59;5124952;27;20493;-39
2021/12/06 07:48:19;;;;;;;0.20;0.20;;;;;;;19.61;41.70;101023.09;5118875;27;20054;-40
2021/12/06 07:50:45;;;;;;;0.20;0.20;;;;;;;19.62;41.69;101022.00;5125119;27;20051;-46
2021/12/06 07:53:11;;;;;;;0.20;0.20;;;;;;;19.63;41.52;101020.06;5125862;27;20066;-39
2021/12/06 07:55:37;;;;;;;0.20;0.20;;;;;;;19.63;41.64;101020.88;5105633;28;20039;-38
2021/12/06 07:58:05;;;;;;;0.20;0.20;;;;;;;19.64;41.47;101019.75;5125004;27;20053;-40
2021/12/06 08:00:34;;;;;;;0.20;0.20;;;;;;;19.64;41.27;101021.69;5123657;27;20055;-40
2021/12/06 08:03:00;;;;;;;0.20;0.20;;;;;;;19.64;41.74;101021.69;5117351;27;20046;-39
2021/12/06 08:05:30;;;;;;;0.20;0.20;;;;;;;19.65;41.26;101020.63;5096864;27;20051;-40
2021/12/06 08:08:08;;;;;;;0.20;0.20;;;;;;;19.64;41.10;101022.53;5117528;27;20850;-38
2021/12/06 08:10:37;;;;;;;0.20;0.20;;;;;;;19.64;41.39;101033.56;5093699;28;20099;-45
2021/12/06 08:13:04;;;;;;;0.20;0.20;;;;;;;19.64;41.51;101028.03;5084461;27;20794;-40
2021/12/06 08:15:30;;;;;;;0.20;0.20;;;;;;;19.68;41.55;101026.38;5089712;27;20200;-44
2021/12/06 08:17:55;;;;;;;0.20;0.20;;;;;;;19.72;41.26;101024.72;5072979;28;20427;-44
2021/12/06 08:20:22;;;;;;;0.20;0.20;;;;;;;19.72;41.44;101034.94;5121483;27;20433;-42
2021/12/06 08:22:47;;;;;;;0.20;0.20;;;;;;;19.70;41.62;101031.63;5123671;27;20049;-40
2021/12/06 08:25:14;;;;;;;0.20;0.20;;;;;;;19.69;41.45;101025.28;5115633;27;20070;-40
2021/12/06 08:27:40;;;;;;;0.20;0.20;;;;;;;19.69;41.63;101049.31;5102702;27;20048;-39
2021/12/06 08:30:06;;;;;;;0.20;0.20;;;;;;;19.70;41.69;101045.47;5117936;27;20047;-39
2021/12/06 08:32:33;;;;;;;0.20;0.20;;;;;;;19.70;41.34;101045.47;5120983;27;20039;-41
2021/12/06 08:34:58;;;;;;;0.20;0.20;;;;;;;19.70;41.37;101050.97;5100159;28;20445;-39
2021/12/06 08:37:26;;;;;;;0.20;0.20;;;;;;;19.70;41.43;101048.22;5100824;27;20142;-39
2021/12/06 08:39:52;;;;;;;0.20;0.20;;;;;;;19.71;41.08;101053.44;5119671;27;20405;-43
2021/12/06 08:42:18;;;;;;;0.20;0.20;;;;;;;19.71;41.54;101047.09;5098407;28;20051;-38
2021/12/06 08:44:43;;;;;;;0.20;0.20;;;;;;;19.72;41.26;101048.75;5096345;27;20097;-39
2021/12/06 08:47:09;;;;;;;0.20;0.20;;;;;;;19.73;41.47;101047.63;5121322;27;20058;-42
2021/12/06 08:49:35;;;;;;;0.20;0.20;;;;;;;19.73;41.23;101048.50;5104230;27;20134;-43
2021/12/06 08:52:02;;;;;;;0.20;0.20;;;;;;;19.73;41.51;101056.78;5105849;27;20043;-41
2021/12/06 08:54:29;;;;;;;0.20;0.20;;;;;;;19.74;41.22;101052.91;5087889;27;20043;-40
2021/12/06 08:56:57;;;;;;;0.20;0.20;;;;;;;19.74;41.37;101057.59;5094302;27;20080;-41
2021/12/06 08:59:23;;;;;;;0.20;0.20;;;;;;;19.73;41.21;101059.53;5108758;27;20039;-39
2021/12/06 09:01:49;;;;;;;0.20;0.20;;;;;;;19.75;41.09;101056.50;5095450;28;20058;-41
2021/12/06 09:04:39;;;;;;;0.20;0.20;;;;;;;19.74;41.07;101055.66;5092153;27;20477;-39
2021/12/06 09:07:11;;;;;;;0.20;0.20;;;;;;;19.75;41.48;101065.59;5110985;27;20056;-39
2021/12/06 09:09:45;;;;;;;0.20;0.20;;;;;;;19.76;41.18;101061.72;5115222;27;20087;-43
2021/12/06 09:12:14;;;;;;;0.20;0.20;;;;;;;19.75;40.97;101060.06;5093403;28;20474;-39
2021/12/06 09:14:39;;;;;;;0.20;0.20;;;;;;;19.76;41.02;101063.66;5116636;27;20126;-39
2021/12/06 09:17:05;;;;;;;0.20;0.20;;;;;;;19.76;41.01;101050.66;5093580;28;20054;-39
2021/12/06 09:19:31;;;;;;;0.20;0.20;;;;;;;19.77;41.35;101045.97;5115985;27;20048;-40
2021/12/06 09:21:57;;;;;;;0.20;0.20;;;;;;;19.77;41.19;101051.50;5115610;27;20044;-40
2021/12/06 09:24:22;;;;;;;0.20;0.20;;;;;;;19.78;40.69;101053.16;5114024;27;20059;-42
2021/12/06 09:26:48;;;;;;;0.20;0.20;;;;;;;19.76;40.99;101050.66;5122238;27;20048;-39
2021/12/06 09:29:15;;;;;;;0.20;0.20;;;;;;;19.77;40.99;101054.25;5118478;27;20046;-40
2021/12/06 09:31:40;;;;;;;0.20;0.20;;;;;;;19.76;41.29;101061.72;5101413;27;20099;-42
2021/12/06 09:34:06;;;;;;;0.20;0.20;;;;;;;19.76;41.14;101058.13;5118233;27;20077;-39
2021/12/06 09:36:33;;;;;;;0.20;0.20;;;;;;;19.76;41.10;101066.44;5113463;27;20039;-40
2021/12/06 09:39:00;;;;;;;0.20;0.20;;;;;;;19.76;41.21;101060.91;5119595;27;22000;-39
2021/12/06 09:41:29;;;;;;;0.20;0.20;;;;;;;19.76;41.07;101064.47;5118026;27;20043;-41
2021/12/06 09:43:58;;;;;;;0.20;0.20;;;;;;;19.76;41.07;101063.66;5092767;28;20043;-42
2021/12/06 09:46:24;;;;;;;0.20;0.20;;;;;;;19.75;41.05;101062.84;5114801;27;20051;-43
2021/12/06 09:48:50;;;;;;;0.20;0.20;;;;;;;19.75;41.16;101060.06;5097811;27;20481;-42
2021/12/06 09:51:21;;;;;;;0.20;0.20;;;;;;;19.77;41.29;101076.38;5095973;27;20169;-39
2021/12/06 09:53:49;;;;;;;0.20;0.20;;;;;;;19.75;40.83;101073.88;5114468;27;20083;-41
2021/12/06 09:56:18;;;;;;;0.20;0.20;;;;;;;19.75;40.88;101076.66;5115216;27;20420;-40
2021/12/06 09:58:45;;;;;;;0.20;0.20;;;;;;;19.75;41.26;101079.41;5119882;27;20043;-39
2021/12/06 10:01:16;;;;;;;0.20;0.20;;;;;;;19.74;40.93;101076.94;5120315;27;20058;-42
2021/12/06 10:03:46;;;;;;;0.20;0.20;;;;;;;19.74;40.93;101077.78;5126111;27;20058;-38
2021/12/06 10:06:12;;;;;;;0.20;0.20;;;;;;;19.73;40.86;101073.34;5120591;27;20047;-44
2021/12/06 10:08:39;;;;;;;0.20;0.20;;;;;;;19.72;41.11;101077.22;5121227;27;20058;-42
2021/12/06 10:11:07;;;;;;;0.20;0.20;;;;;;;19.73;41.11;101078.88;5120370;27;20039;-40
2021/12/06 10:13:33;;;;;;;0.20;0.20;;;;;;;19.72;40.84;101071.69;5119852;27;20070;-39
2021/12/06 10:16:00;;;;;;;0.20;0.20;;;;;;;19.73;40.92;101066.97;5120716;27;20465;-39
2021/12/06 10:18:25;;;;;;;0.20;0.20;;;;;;;19.73;40.83;101064.22;5115443;27;20447;-42
2021/12/06 10:20:52;;;;;;;0.20;0.20;;;;;;;19.73;41.10;101070.59;5116959;27;20035;-42
2021/12/06 10:23:19;;;;;;;0.20;0.20;;;;;;;19.72;41.32;101059.81;5112436;27;20728;-43
2021/12/06 10:25:48;;;;;;;0.20;0.20;;;;;;;19.71;40.92;101056.22;5116613;27;20040;-40
2021/12/06 10:28:15;;;;;;;0.20;0.20;;;;;;;19.70;40.98;101062.84;5117479;27;20039;-41
2021/12/06 10:30:44;;;;;;;0.20;0.20;;;;;;;19.69;41.39;101054.84;5099987;28;20085;-39
2021/12/06 10:33:14;;;;;;;0.20;0.20;;;;;;;19.69;41.11;101057.59;5119646;27;20397;-45
2021/12/06 10:35:43;;;;;;;0.20;0.20;;;;;;;19.69;41.26;101058.44;5097834;28;20039;-42
2021/12/06 10:38:10;;;;;;;0.20;0.20;;;;;;;19.68;41.37;101050.41;5101348;28;20051;-43
2021/12/06 10:40:40;;;;;;;0.20;0.20;;;;;;;19.66;41.28;101045.19;5116980;27;20055;-42
2021/12/06 10:43:11;;;;;;;0.20;0.20;;;;;;;19.65;41.05;101040.78;5113314;27;20561;-39
2021/12/06 10:45:42;;;;;;;0.20;0.20;;;;;;;19.65;40.91;101035.25;5113536;27;20035;-43
2021/12/06 10:48:14;;;;;;;0.20;0.20;;;;;;;19.64;41.21;101038.28;5117850;27;20134;-40
2021/12/06 10:50:55;;;;;;;0.20;0.20;;;;;;;19.63;41.26;101040.22;5118411;27;20050;-43
2021/12/06 10:53:26;;;;;;;0.20;0.20;;;;;;;19.63;41.31;101029.16;5115995;27;20054;-40
2021/12/06 10:55:55;;;;;;;0.20;0.20;;;;;;;19.63;41.03;101031.94;5120846;27;20048;-39
2021/12/06 10:58:22;;;;;;;;;;;;;;;19.63;41.14;101028.34;5121768;27;20299;-41
2021/12/06 11:00:56;;;;;;;0.20;0.20;;;;;;;19.61;41.42;101025.88;5116299;27;19920;-39
2021/12/06 11:06:08;;;;;;;0.20;0.20;;;;;;;19.62;41.18;101023.94;5164317;27;20202;-38
2021/12/06 11:08:35;;;;;;;0.20;0.20;;;;;;;19.61;40.99;101022.28;5151830;27;20125;-39
2021/12/06 11:11:04;;;;;;;0.20;0.20;;;;;;;19.60;41.16;101017.81;5152232;27;20046;-38
2021/12/06 11:13:33;;;;;;;0.20;0.20;;;;;;;19.60;41.02;101012.28;5151213;27;20134;-39
2021/12/06 11:19:04;;;;;;;0.20;0.20;;;;;;;19.57;41.19;101010.09;5154476;27;20595;-39
2021/12/06 11:21:42;;;;;;;0.20;0.20;;;;;;;19.57;41.40;101005.41;5126676;27;20147;-38
2021/12/06 11:24:18;;;;;;;0.20;0.20;;;;;;;19.58;41.46;100993.25;5116877;27;20057;-38
2021/12/06 11:26:48;;;;;;;0.20;0.20;;;;;;;19.55;40.99;100991.03;5135460;27;20053;-38
2021/12/06 11:29:20;;;;;;;0.20;0.20;;;;;;;19.57;41.22;100985.25;5137020;27;20653;-38
2021/12/06 11:31:54;;;;;;;0.20;0.20;;;;;;;19.57;41.02;100988.00;5139213;27;20055;-38
2021/12/06 11:34:20;;;;;;;0.20;0.20;;;;;;;19.57;41.28;100976.97;5133867;27;20074;-38
2021/12/06 11:36:50;;;;;;;0.20;0.20;;;;;;;19.54;41.15;100976.41;5131862;27;20047;-40
2021/12/06 11:39:19;;;;;;;0.20;0.20;;;;;;;19.55;41.08;100966.16;5133766;27;20422;-42
2021/12/06 11:41:49;;;;;;;0.20;0.20;;;;;;;19.54;41.28;100965.34;5117800;27;20770;-40
2021/12/06 11:44:20;;;;;;;0.20;0.20;;;;;;;19.55;40.98;100966.16;5138846;27;20039;-40
2021/12/06 11:46:46;;;;;;;0.20;0.20;;;;;;;19.54;41.51;100956.25;5114402;27;20043;-40